sensor_id;sensor_type;location;lat;lon;timestamp;P1;durP1;ratioP1;P2;durP2;ratioP2
21878;SDS011;27908;42.708;23.278;2023-09-07T00:00:29;12.63;;;7.63;;
21878;SDS011;27908;42.708;23.278;2023-09-07T00:02:55;14.13;;;8.00;;
21878;SDS011;27908;42.708;23.278;2023-09-07T00:05:20;14.20;;;7.55;;
21878;SDS011;27908;42.708;23.278;2023-09-07T00:07:45;15.23;;;7.30;;
21878;SDS011;27908;42.708;23.278;2023-09-07T00:10:29;12.95;;;7.57;;
21878;SDS011;27908;42.708;23.278;2023-09-07T00:12:55;16.40;;;7.13;;
21878;SDS011;27908;42.708;23.278;2023-09-07T00:15:20;12.77;;;7.10;;
21878;SDS011;27908;42.708;23.278;2023-09-07T00:17:46;15.65;;;7.30;;
21878;SDS011;27908;42.708;23.278;2023-09-07T00:20:12;13.13;;;7.40;;
21878;SDS011;27908;42.708;23.278;2023-09-07T00:22:39;15.00;;;7.72;;
21878;SDS011;27908;42.708;23.278;2023-09-07T00:25:05;14.07;;;7.20;;
21878;SDS011;27908;42.708;23.278;2023-09-07T00:27:31;13.63;;;7.47;;
21878;SDS011;27908;42.708;23.278;2023-09-07T00:29:58;17.27;;;7.50;;
21878;SDS011;27908;42.708;23.278;2023-09-07T00:32:24;14.50;;;7.50;;
21878;SDS011;27908;42.708;23.278;2023-09-07T00:34:49;14.03;;;7.17;;
21878;SDS011;27908;42.708;23.278;2023-09-07T00:37:14;13.87;;;7.83;;
21878;SDS011;27908;42.708;23.278;2023-09-07T00:39:40;14.27;;;7.73;;
21878;SDS011;27908;42.708;23.278;2023-09-07T00:42:05;14.23;;;7.50;;
21878;SDS011;27908;42.708;23.278;2023-09-07T00:44:30;16.35;;;7.80;;
21878;SDS011;27908;42.708;23.278;2023-09-07T00:46:56;15.27;;;8.20;;
21878;SDS011;27908;42.708;23.278;2023-09-07T00:49:22;16.13;;;8.05;;
21878;SDS011;27908;42.708;23.278;2023-09-07T00:51:49;13.37;;;7.70;;
21878;SDS011;27908;42.708;23.278;2023-09-07T00:54:15;14.93;;;7.97;;
21878;SDS011;27908;42.708;23.278;2023-09-07T00:56:40;15.00;;;8.40;;
21878;SDS011;27908;42.708;23.278;2023-09-07T00:59:07;15.37;;;8.17;;
21878;SDS011;27908;42.708;23.278;2023-09-07T01:01:33;15.10;;;8.48;;
21878;SDS011;27908;42.708;23.278;2023-09-07T01:03:59;12.05;;;7.53;;
21878;SDS011;27908;42.708;23.278;2023-09-07T01:06:38;14.15;;;8.55;;
21878;SDS011;27908;42.708;23.278;2023-09-07T01:09:11;14.90;;;8.43;;
21878;SDS011;27908;42.708;23.278;2023-09-07T01:11:42;15.27;;;8.35;;
21878;SDS011;27908;42.708;23.278;2023-09-07T01:14:08;13.20;;;8.27;;
21878;SDS011;27908;42.708;23.278;2023-09-07T01:16:35;18.35;;;8.77;;
21878;SDS011;27908;42.708;23.278;2023-09-07T01:19:03;16.13;;;9.55;;
21878;SDS011;27908;42.708;23.278;2023-09-07T01:21:34;17.53;;;8.60;;
21878;SDS011;27908;42.708;23.278;2023-09-07T01:24:02;18.65;;;9.25;;
21878;SDS011;27908;42.708;23.278;2023-09-07T01:26:31;17.10;;;8.80;;
21878;SDS011;27908;42.708;23.278;2023-09-07T01:28:56;15.17;;;9.13;;
21878;SDS011;27908;42.708;23.278;2023-09-07T01:31:22;15.43;;;9.60;;
21878;SDS011;27908;42.708;23.278;2023-09-07T01:33:47;17.30;;;9.47;;
21878;SDS011;27908;42.708;23.278;2023-09-07T01:36:13;16.70;;;9.77;;
21878;SDS011;27908;42.708;23.278;2023-09-07T01:38:38;17.77;;;10.57;;
21878;SDS011;27908;42.708;23.278;2023-09-07T01:41:03;18.57;;;9.70;;
21878;SDS011;27908;42.708;23.278;2023-09-07T01:43:29;17.42;;;9.50;;
21878;SDS011;27908;42.708;23.278;2023-09-07T01:45:54;17.00;;;10.20;;
21878;SDS011;27908;42.708;23.278;2023-09-07T01:48:20;16.93;;;10.60;;
21878;SDS011;27908;42.708;23.278;2023-09-07T01:50:45;18.50;;;10.77;;
21878;SDS011;27908;42.708;23.278;2023-09-07T01:53:11;21.38;;;11.30;;
21878;SDS011;27908;42.708;23.278;2023-09-07T01:55:36;21.27;;;12.80;;
21878;SDS011;27908;42.708;23.278;2023-09-07T01:58:02;20.15;;;11.55;;
21878;SDS011;27908;42.708;23.278;2023-09-07T02:00:27;24.00;;;11.33;;
21878;SDS011;27908;42.708;23.278;2023-09-07T02:02:53;20.70;;;11.95;;
21878;SDS011;27908;42.708;23.278;2023-09-07T02:05:19;21.47;;;11.13;;
21878;SDS011;27908;42.708;23.278;2023-09-07T02:07:44;20.37;;;11.97;;
21878;SDS011;27908;42.708;23.278;2023-09-07T02:10:10;18.90;;;11.27;;
21878;SDS011;27908;42.708;23.278;2023-09-07T02:12:35;20.70;;;11.20;;
21878;SDS011;27908;42.708;23.278;2023-09-07T02:15:01;19.13;;;10.70;;
21878;SDS011;27908;42.708;23.278;2023-09-07T02:17:28;21.75;;;10.57;;
21878;SDS011;27908;42.708;23.278;2023-09-07T02:19:53;18.33;;;10.60;;
21878;SDS011;27908;42.708;23.278;2023-09-07T02:22:19;18.20;;;10.60;;
21878;SDS011;27908;42.708;23.278;2023-09-07T02:24:44;18.27;;;10.52;;
21878;SDS011;27908;42.708;23.278;2023-09-07T02:27:10;19.60;;;10.13;;
21878;SDS011;27908;42.708;23.278;2023-09-07T02:29:35;18.07;;;10.77;;
21878;SDS011;27908;42.708;23.278;2023-09-07T02:32:01;17.87;;;10.93;;
21878;SDS011;27908;42.708;23.278;2023-09-07T02:34:26;18.55;;;10.43;;
21878;SDS011;27908;42.708;23.278;2023-09-07T02:36:52;19.40;;;9.93;;
21878;SDS011;27908;42.708;23.278;2023-09-07T02:39:17;17.53;;;10.30;;
21878;SDS011;27908;42.708;23.278;2023-09-07T02:41:43;21.17;;;11.18;;
21878;SDS011;27908;42.708;23.278;2023-09-07T02:44:10;20.98;;;11.60;;
21878;SDS011;27908;42.708;23.278;2023-09-07T02:46:35;18.07;;;11.23;;
21878;SDS011;27908;42.708;23.278;2023-09-07T02:49:01;19.30;;;11.17;;
21878;SDS011;27908;42.708;23.278;2023-09-07T02:51:26;23.60;;;11.53;;
21878;SDS011;27908;42.708;23.278;2023-09-07T02:53:53;19.70;;;11.35;;
21878;SDS011;27908;42.708;23.278;2023-09-07T02:56:18;20.27;;;11.00;;
21878;SDS011;27908;42.708;23.278;2023-09-07T02:58:44;22.55;;;11.45;;
21878;SDS011;27908;42.708;23.278;2023-09-07T03:01:10;19.00;;;11.53;;
21878;SDS011;27908;42.708;23.278;2023-09-07T03:03:36;21.65;;;11.82;;
21878;SDS011;27908;42.708;23.278;2023-09-07T03:06:09;18.85;;;11.48;;
21878;SDS011;27908;42.708;23.278;2023-09-07T03:08:39;20.02;;;12.02;;
21878;SDS011;27908;42.708;23.278;2023-09-07T03:11:05;22.55;;;11.90;;
21878;SDS011;27908;42.708;23.278;2023-09-07T03:13:32;18.80;;;11.93;;
21878;SDS011;27908;42.708;23.278;2023-09-07T03:15:58;22.42;;;11.88;;
21878;SDS011;27908;42.708;23.278;2023-09-07T03:18:24;20.47;;;11.90;;
21878;SDS011;27908;42.708;23.278;2023-09-07T03:20:50;21.05;;;11.38;;
21878;SDS011;27908;42.708;23.278;2023-09-07T03:26:37;21.65;;;12.48;;
21878;SDS011;27908;42.708;23.278;2023-09-07T03:29:02;20.70;;;12.10;;
21878;SDS011;27908;42.708;23.278;2023-09-07T03:31:28;20.23;;;12.75;;
21878;SDS011;27908;42.708;23.278;2023-09-07T03:33:54;22.40;;;12.73;;
21878;SDS011;27908;42.708;23.278;2023-09-07T03:36:19;22.60;;;13.40;;
21878;SDS011;27908;42.708;23.278;2023-09-07T03:38:47;23.80;;;12.48;;
21878;SDS011;27908;42.708;23.278;2023-09-07T03:41:12;22.37;;;13.23;;
21878;SDS011;27908;42.708;23.278;2023-09-07T03:43:37;22.93;;;12.90;;
21878;SDS011;27908;42.708;23.278;2023-09-07T03:46:03;20.60;;;12.60;;
21878;SDS011;27908;42.708;23.278;2023-09-07T03:48:28;21.25;;;12.57;;
21878;SDS011;27908;42.708;23.278;2023-09-07T03:50:54;24.50;;;14.33;;
21878;SDS011;27908;42.708;23.278;2023-09-07T03:53:19;21.47;;;13.00;;
21878;SDS011;27908;42.708;23.278;2023-09-07T03:55:44;22.53;;;13.47;;
21878;SDS011;27908;42.708;23.278;2023-09-07T03:58:10;19.90;;;12.33;;
21878;SDS011;27908;42.708;23.278;2023-09-07T04:00:40;21.73;;;12.30;;
21878;SDS011;27908;42.708;23.278;2023-09-07T04:03:06;21.73;;;12.45;;
21878;SDS011;27908;42.708;23.278;2023-09-07T04:05:36;25.02;;;14.05;;
21878;SDS011;27908;42.708;23.278;2023-09-07T04:08:03;21.73;;;13.43;;
21878;SDS011;27908;42.708;23.278;2023-09-07T04:10:29;20.93;;;13.00;;
21878;SDS011;27908;42.708;23.278;2023-09-07T04:12:54;25.00;;;13.98;;
21878;SDS011;27908;42.708;23.278;2023-09-07T04:15:20;24.00;;;12.97;;
21878;SDS011;27908;42.708;23.278;2023-09-07T04:17:46;24.97;;;13.60;;
21878;SDS011;27908;42.708;23.278;2023-09-07T04:20:11;21.80;;;13.13;;
21878;SDS011;27908;42.708;23.278;2023-09-07T04:22:39;22.23;;;13.95;;
21878;SDS011;27908;42.708;23.278;2023-09-07T04:25:05;19.90;;;12.55;;
21878;SDS011;27908;42.708;23.278;2023-09-07T04:27:31;23.98;;;14.30;;
21878;SDS011;27908;42.708;23.278;2023-09-07T04:29:57;22.00;;;13.33;;
21878;SDS011;27908;42.708;23.278;2023-09-07T04:32:22;25.30;;;14.50;;
21878;SDS011;27908;42.708;23.278;2023-09-07T04:34:52;26.52;;;13.93;;
21878;SDS011;27908;42.708;23.278;2023-09-07T04:37:21;21.97;;;13.27;;
21878;SDS011;27908;42.708;23.278;2023-09-07T04:39:51;23.60;;;14.43;;
21878;SDS011;27908;42.708;23.278;2023-09-07T04:42:19;25.13;;;14.18;;
21878;SDS011;27908;42.708;23.278;2023-09-07T04:44:48;24.45;;;13.55;;
21878;SDS011;27908;42.708;23.278;2023-09-07T04:47:14;22.20;;;13.70;;
21878;SDS011;27908;42.708;23.278;2023-09-07T04:49:42;24.37;;;13.77;;
21878;SDS011;27908;42.708;23.278;2023-09-07T04:52:13;26.85;;;14.68;;
21878;SDS011;27908;42.708;23.278;2023-09-07T04:54:38;25.97;;;15.40;;
21878;SDS011;27908;42.708;23.278;2023-09-07T04:57:04;23.27;;;14.15;;
21878;SDS011;27908;42.708;23.278;2023-09-07T04:59:29;24.90;;;13.17;;
21878;SDS011;27908;42.708;23.278;2023-09-07T05:02:19;23.70;;;13.98;;
21878;SDS011;27908;42.708;23.278;2023-09-07T05:05:11;21.02;;;12.02;;
21878;SDS011;27908;42.708;23.278;2023-09-07T05:07:36;25.40;;;13.47;;
21878;SDS011;27908;42.708;23.278;2023-09-07T05:10:02;24.07;;;14.87;;
21878;SDS011;27908;42.708;23.278;2023-09-07T05:12:28;25.65;;;13.80;;
21878;SDS011;27908;42.708;23.278;2023-09-07T05:14:53;25.53;;;13.90;;
21878;SDS011;27908;42.708;23.278;2023-09-07T05:17:18;25.52;;;14.35;;
21878;SDS011;27908;42.708;23.278;2023-09-07T05:19:44;24.87;;;13.70;;
21878;SDS011;27908;42.708;23.278;2023-09-07T05:22:09;24.57;;;14.57;;
21878;SDS011;27908;42.708;23.278;2023-09-07T05:24:37;24.88;;;14.10;;
21878;SDS011;27908;42.708;23.278;2023-09-07T05:27:03;23.13;;;13.35;;
21878;SDS011;27908;42.708;23.278;2023-09-07T05:29:29;23.60;;;13.03;;
21878;SDS011;27908;42.708;23.278;2023-09-07T05:31:54;22.40;;;12.70;;
21878;SDS011;27908;42.708;23.278;2023-09-07T05:34:19;23.17;;;13.07;;
21878;SDS011;27908;42.708;23.278;2023-09-07T05:36:47;24.33;;;13.57;;
21878;SDS011;27908;42.708;23.278;2023-09-07T05:39:13;24.08;;;12.48;;
21878;SDS011;27908;42.708;23.278;2023-09-07T05:41:38;22.53;;;12.97;;
21878;SDS011;27908;42.708;23.278;2023-09-07T05:44:04;26.73;;;13.70;;
21878;SDS011;27908;42.708;23.278;2023-09-07T05:46:29;24.93;;;14.03;;
21878;SDS011;27908;42.708;23.278;2023-09-07T05:48:55;27.05;;;12.52;;
21878;SDS011;27908;42.708;23.278;2023-09-07T05:51:20;23.27;;;13.03;;
21878;SDS011;27908;42.708;23.278;2023-09-07T05:53:45;23.63;;;13.57;;
21878;SDS011;27908;42.708;23.278;2023-09-07T05:56:11;22.07;;;13.00;;
21878;SDS011;27908;42.708;23.278;2023-09-07T05:58:36;28.92;;;12.85;;
21878;SDS011;27908;42.708;23.278;2023-09-07T06:01:02;24.53;;;11.67;;
21878;SDS011;27908;42.708;23.278;2023-09-07T06:03:27;22.60;;;12.03;;
21878;SDS011;27908;42.708;23.278;2023-09-07T06:05:53;23.08;;;12.05;;
21878;SDS011;27908;42.708;23.278;2023-09-07T06:08:18;22.03;;;12.70;;
21878;SDS011;27908;42.708;23.278;2023-09-07T06:10:44;21.23;;;12.73;;
21878;SDS011;27908;42.708;23.278;2023-09-07T06:13:09;22.67;;;12.27;;
21878;SDS011;27908;42.708;23.278;2023-09-07T06:15:35;20.40;;;11.55;;
21878;SDS011;27908;42.708;23.278;2023-09-07T06:18:00;21.03;;;11.97;;
21878;SDS011;27908;42.708;23.278;2023-09-07T06:20:25;21.93;;;11.47;;
21878;SDS011;27908;42.708;23.278;2023-09-07T06:22:51;21.13;;;10.83;;
21878;SDS011;27908;42.708;23.278;2023-09-07T06:25:16;18.17;;;11.40;;
21878;SDS011;27908;42.708;23.278;2023-09-07T06:27:42;20.13;;;9.93;;
21878;SDS011;27908;42.708;23.278;2023-09-07T06:30:08;21.77;;;11.38;;
21878;SDS011;27908;42.708;23.278;2023-09-07T06:32:34;19.38;;;9.85;;
21878;SDS011;27908;42.708;23.278;2023-09-07T06:35:00;16.30;;;9.73;;
21878;SDS011;27908;42.708;23.278;2023-09-07T06:37:25;19.67;;;10.30;;
21878;SDS011;27908;42.708;23.278;2023-09-07T06:39:51;17.97;;;10.20;;
21878;SDS011;27908;42.708;23.278;2023-09-07T06:42:16;15.77;;;9.30;;
21878;SDS011;27908;42.708;23.278;2023-09-07T06:44:42;19.70;;;9.47;;
21878;SDS011;27908;42.708;23.278;2023-09-07T06:47:08;14.60;;;9.07;;
21878;SDS011;27908;42.708;23.278;2023-09-07T06:49:33;15.40;;;8.73;;
21878;SDS011;27908;42.708;23.278;2023-09-07T06:51:59;16.02;;;8.32;;
21878;SDS011;27908;42.708;23.278;2023-09-07T06:54:25;14.20;;;8.23;;
21878;SDS011;27908;42.708;23.278;2023-09-07T06:56:52;14.45;;;7.47;;
21878;SDS011;27908;42.708;23.278;2023-09-07T06:59:18;15.60;;;8.50;;
21878;SDS011;27908;42.708;23.278;2023-09-07T07:01:43;14.25;;;7.45;;
21878;SDS011;27908;42.708;23.278;2023-09-07T07:04:08;17.20;;;7.87;;
21878;SDS011;27908;42.708;23.278;2023-09-07T07:06:34;15.30;;;6.90;;
21878;SDS011;27908;42.708;23.278;2023-09-07T07:09:00;13.90;;;7.70;;
21878;SDS011;27908;42.708;23.278;2023-09-07T07:11:25;17.30;;;8.30;;
21878;SDS011;27908;42.708;23.278;2023-09-07T07:13:51;12.40;;;6.93;;
21878;SDS011;27908;42.708;23.278;2023-09-07T07:16:16;14.35;;;7.30;;
21878;SDS011;27908;42.708;23.278;2023-09-07T07:18:42;14.60;;;7.00;;
21878;SDS011;27908;42.708;23.278;2023-09-07T07:21:07;17.10;;;7.50;;
21878;SDS011;27908;42.708;23.278;2023-09-07T07:23:34;16.20;;;7.60;;
21878;SDS011;27908;42.708;23.278;2023-09-07T07:26:00;13.10;;;7.40;;
21878;SDS011;27908;42.708;23.278;2023-09-07T07:28:25;13.60;;;6.90;;
21878;SDS011;27908;42.708;23.278;2023-09-07T07:30:51;15.82;;;7.03;;
21878;SDS011;27908;42.708;23.278;2023-09-07T07:33:18;12.10;;;6.82;;
21878;SDS011;27908;42.708;23.278;2023-09-07T07:35:44;13.27;;;7.33;;
21878;SDS011;27908;42.708;23.278;2023-09-07T07:38:11;15.20;;;7.13;;
21878;SDS011;27908;42.708;23.278;2023-09-07T07:40:38;16.48;;;7.30;;
21878;SDS011;27908;42.708;23.278;2023-09-07T07:43:04;16.27;;;7.47;;
21878;SDS011;27908;42.708;23.278;2023-09-07T07:45:29;15.77;;;6.70;;
21878;SDS011;27908;42.708;23.278;2023-09-07T07:47:55;12.13;;;6.50;;
21878;SDS011;27908;42.708;23.278;2023-09-07T07:50:20;14.53;;;5.93;;
21878;SDS011;27908;42.708;23.278;2023-09-07T07:52:45;13.00;;;6.57;;
21878;SDS011;27908;42.708;23.278;2023-09-07T07:55:11;10.80;;;5.77;;
21878;SDS011;27908;42.708;23.278;2023-09-07T07:57:37;13.63;;;5.43;;
21878;SDS011;27908;42.708;23.278;2023-09-07T08:00:06;10.52;;;5.60;;
21878;SDS011;27908;42.708;23.278;2023-09-07T08:02:32;12.80;;;5.60;;
21878;SDS011;27908;42.708;23.278;2023-09-07T08:04:58;11.77;;;5.40;;
21878;SDS011;27908;42.708;23.278;2023-09-07T08:07:24;11.50;;;5.43;;
21878;SDS011;27908;42.708;23.278;2023-09-07T08:09:50;9.35;;;4.95;;
21878;SDS011;27908;42.708;23.278;2023-09-07T08:12:16;10.85;;;5.40;;
21878;SDS011;27908;42.708;23.278;2023-09-07T08:14:42;12.15;;;5.22;;
21878;SDS011;27908;42.708;23.278;2023-09-07T08:17:08;11.57;;;4.83;;
21878;SDS011;27908;42.708;23.278;2023-09-07T08:19:33;10.73;;;5.10;;
21878;SDS011;27908;42.708;23.278;2023-09-07T08:21:59;10.87;;;4.93;;
21878;SDS011;27908;42.708;23.278;2023-09-07T08:24:24;12.10;;;5.30;;
21878;SDS011;27908;42.708;23.278;2023-09-07T08:26:50;11.33;;;5.33;;
21878;SDS011;27908;42.708;23.278;2023-09-07T08:29:16;10.65;;;5.15;;
21878;SDS011;27908;42.708;23.278;2023-09-07T08:31:41;10.00;;;4.50;;
21878;SDS011;27908;42.708;23.278;2023-09-07T08:34:09;9.85;;;4.80;;
21878;SDS011;27908;42.708;23.278;2023-09-07T08:36:36;9.82;;;5.15;;
21878;SDS011;27908;42.708;23.278;2023-09-07T08:39:02;11.67;;;5.50;;
21878;SDS011;27908;42.708;23.278;2023-09-07T08:41:31;12.13;;;5.03;;
21878;SDS011;27908;42.708;23.278;2023-09-07T08:43:57;13.43;;;5.40;;
21878;SDS011;27908;42.708;23.278;2023-09-07T08:46:22;10.83;;;5.10;;
21878;SDS011;27908;42.708;23.278;2023-09-07T08:48:49;9.38;;;5.10;;
21878;SDS011;27908;42.708;23.278;2023-09-07T08:51:15;13.02;;;5.53;;
21878;SDS011;27908;42.708;23.278;2023-09-07T08:53:43;9.40;;;4.82;;
21878;SDS011;27908;42.708;23.278;2023-09-07T08:56:11;11.17;;;4.83;;
21878;SDS011;27908;42.708;23.278;2023-09-07T08:58:38;11.18;;;5.40;;
21878;SDS011;27908;42.708;23.278;2023-09-07T09:01:06;10.95;;;5.00;;
21878;SDS011;27908;42.708;23.278;2023-09-07T09:03:33;10.02;;;4.90;;
21878;SDS011;27908;42.708;23.278;2023-09-07T09:06:00;10.70;;;5.40;;
21878;SDS011;27908;42.708;23.278;2023-09-07T09:08:26;13.23;;;5.77;;
21878;SDS011;27908;42.708;23.278;2023-09-07T09:11:01;10.23;;;4.88;;
21878;SDS011;27908;42.708;23.278;2023-09-07T09:13:30;13.57;;;5.17;;
21878;SDS011;27908;42.708;23.278;2023-09-07T09:15:58;11.73;;;5.38;;
21878;SDS011;27908;42.708;23.278;2023-09-07T09:18:24;9.45;;;5.18;;
21878;SDS011;27908;42.708;23.278;2023-09-07T09:20:51;8.60;;;4.70;;
21878;SDS011;27908;42.708;23.278;2023-09-07T09:23:17;10.80;;;4.68;;
21878;SDS011;27908;42.708;23.278;2023-09-07T09:25:42;10.77;;;5.27;;
21878;SDS011;27908;42.708;23.278;2023-09-07T09:28:11;9.50;;;4.80;;
21878;SDS011;27908;42.708;23.278;2023-09-07T09:30:36;9.05;;;4.40;;
21878;SDS011;27908;42.708;23.278;2023-09-07T09:33:02;9.52;;;4.70;;
21878;SDS011;27908;42.708;23.278;2023-09-07T09:35:30;8.90;;;4.32;;
21878;SDS011;27908;42.708;23.278;2023-09-07T09:37:59;10.48;;;4.70;;
21878;SDS011;27908;42.708;23.278;2023-09-07T09:40:29;13.20;;;4.90;;
21878;SDS011;27908;42.708;23.278;2023-09-07T09:43:01;11.90;;;5.65;;
21878;SDS011;27908;42.708;23.278;2023-09-07T09:45:28;9.60;;;5.18;;
21878;SDS011;27908;42.708;23.278;2023-09-07T09:47:54;11.63;;;4.80;;
21878;SDS011;27908;42.708;23.278;2023-09-07T09:50:23;10.82;;;5.20;;
21878;SDS011;27908;42.708;23.278;2023-09-07T09:52:49;9.73;;;4.83;;
21878;SDS011;27908;42.708;23.278;2023-09-07T09:55:18;10.13;;;4.70;;
21878;SDS011;27908;42.708;23.278;2023-09-07T09:57:43;10.23;;;5.03;;
21878;SDS011;27908;42.708;23.278;2023-09-07T10:00:09;10.80;;;4.40;;
21878;SDS011;27908;42.708;23.278;2023-09-07T10:06:29;12.05;;;4.75;;
21878;SDS011;27908;42.708;23.278;2023-09-07T10:11:32;9.00;;;4.40;;
21878;SDS011;27908;42.708;23.278;2023-09-07T10:13:59;11.23;;;4.33;;
21878;SDS011;27908;42.708;23.278;2023-09-07T10:19:41;8.63;;;4.53;;
21878;SDS011;27908;42.708;23.278;2023-09-07T10:22:23;14.93;;;5.57;;
21878;SDS011;27908;42.708;23.278;2023-09-07T10:25:36;11.38;;;5.57;;
21878;SDS011;27908;42.708;23.278;2023-09-07T10:27:44;9.80;;;4.47;;
21878;SDS011;27908;42.708;23.278;2023-09-07T10:30:09;10.10;;;4.90;;
21878;SDS011;27908;42.708;23.278;2023-09-07T10:32:38;11.97;;;4.90;;
21878;SDS011;27908;42.708;23.278;2023-09-07T10:35:26;11.88;;;5.00;;
21878;SDS011;27908;42.708;23.278;2023-09-07T10:37:53;11.73;;;4.78;;
21878;SDS011;27908;42.708;23.278;2023-09-07T10:40:20;10.55;;;5.13;;
21878;SDS011;27908;42.708;23.278;2023-09-07T10:42:46;11.03;;;5.20;;
21878;SDS011;27908;42.708;23.278;2023-09-07T10:45:13;9.85;;;5.10;;
21878;SDS011;27908;42.708;23.278;2023-09-07T10:47:44;12.35;;;5.40;;
21878;SDS011;27908;42.708;23.278;2023-09-07T10:50:14;10.82;;;4.80;;
21878;SDS011;27908;42.708;23.278;2023-09-07T10:52:43;12.27;;;4.80;;
21878;SDS011;27908;42.708;23.278;2023-09-07T10:55:08;9.87;;;4.43;;
21878;SDS011;27908;42.708;23.278;2023-09-07T10:57:43;11.82;;;4.68;;
21878;SDS011;27908;42.708;23.278;2023-09-07T11:00:10;14.65;;;4.78;;
21878;SDS011;27908;42.708;23.278;2023-09-07T11:02:39;10.40;;;5.07;;
21878;SDS011;27908;42.708;23.278;2023-09-07T11:05:06;10.27;;;4.80;;
21878;SDS011;27908;42.708;23.278;2023-09-07T11:07:32;9.30;;;4.70;;
21878;SDS011;27908;42.708;23.278;2023-09-07T11:09:58;12.00;;;4.60;;
21878;SDS011;27908;42.708;23.278;2023-09-07T11:12:24;10.00;;;4.65;;
21878;SDS011;27908;42.708;23.278;2023-09-07T11:14:50;11.40;;;4.43;;
21878;SDS011;27908;42.708;23.278;2023-09-07T11:17:17;9.73;;;4.07;;
21878;SDS011;27908;42.708;23.278;2023-09-07T11:19:43;9.23;;;4.00;;
21878;SDS011;27908;42.708;23.278;2023-09-07T11:22:09;8.90;;;4.15;;
21878;SDS011;27908;42.708;23.278;2023-09-07T11:24:35;10.38;;;4.10;;
21878;SDS011;27908;42.708;23.278;2023-09-07T11:27:01;9.90;;;4.20;;
21878;SDS011;27908;42.708;23.278;2023-09-07T11:29:33;9.57;;;4.20;;
21878;SDS011;27908;42.708;23.278;2023-09-07T11:32:08;10.65;;;4.18;;
21878;SDS011;27908;42.708;23.278;2023-09-07T11:34:34;10.80;;;4.10;;
21878;SDS011;27908;42.708;23.278;2023-09-07T11:37:02;12.27;;;4.00;;
21878;SDS011;27908;42.708;23.278;2023-09-07T11:39:28;10.70;;;4.20;;
21878;SDS011;27908;42.708;23.278;2023-09-07T11:41:53;8.83;;;4.30;;
21878;SDS011;27908;42.708;23.278;2023-09-07T11:44:19;9.52;;;4.10;;
21878;SDS011;27908;42.708;23.278;2023-09-07T11:46:47;12.30;;;5.18;;
21878;SDS011;27908;42.708;23.278;2023-09-07T11:49:13;10.73;;;4.30;;
21878;SDS011;27908;42.708;23.278;2023-09-07T11:51:38;9.93;;;4.60;;
21878;SDS011;27908;42.708;23.278;2023-09-07T11:54:04;9.53;;;4.00;;
21878;SDS011;27908;42.708;23.278;2023-09-07T11:56:29;9.10;;;4.18;;
21878;SDS011;27908;42.708;23.278;2023-09-07T11:58:55;9.57;;;4.03;;
21878;SDS011;27908;42.708;23.278;2023-09-07T12:01:21;9.93;;;4.50;;
21878;SDS011;27908;42.708;23.278;2023-09-07T12:03:46;10.48;;;4.30;;
21878;SDS011;27908;42.708;23.278;2023-09-07T12:06:12;12.25;;;4.00;;
21878;SDS011;27908;42.708;23.278;2023-09-07T12:08:41;8.93;;;3.87;;
21878;SDS011;27908;42.708;23.278;2023-09-07T12:11:08;8.05;;;4.18;;
21878;SDS011;27908;42.708;23.278;2023-09-07T12:13:33;12.60;;;4.27;;
21878;SDS011;27908;42.708;23.278;2023-09-07T12:15:58;7.60;;;3.45;;
21878;SDS011;27908;42.708;23.278;2023-09-07T12:18:26;9.27;;;4.07;;
21878;SDS011;27908;42.708;23.278;2023-09-07T12:20:51;9.07;;;3.75;;
21878;SDS011;27908;42.708;23.278;2023-09-07T12:23:17;10.03;;;3.77;;
21878;SDS011;27908;42.708;23.278;2023-09-07T12:25:42;9.10;;;4.03;;
21878;SDS011;27908;42.708;23.278;2023-09-07T12:28:08;8.90;;;3.97;;
21878;SDS011;27908;42.708;23.278;2023-09-07T12:30:34;8.13;;;4.00;;
21878;SDS011;27908;42.708;23.278;2023-09-07T12:32:59;7.93;;;4.00;;
21878;SDS011;27908;42.708;23.278;2023-09-07T12:35:25;8.57;;;3.90;;
21878;SDS011;27908;42.708;23.278;2023-09-07T12:37:56;7.17;;;3.17;;
21878;SDS011;27908;42.708;23.278;2023-09-07T12:40:59;8.80;;;4.00;;
21878;SDS011;27908;42.708;23.278;2023-09-07T12:43:24;7.90;;;4.00;;
21878;SDS011;27908;42.708;23.278;2023-09-07T12:45:50;10.53;;;4.17;;
21878;SDS011;27908;42.708;23.278;2023-09-07T12:48:16;11.68;;;3.95;;
21878;SDS011;27908;42.708;23.278;2023-09-07T12:50:41;8.50;;;4.00;;
21878;SDS011;27908;42.708;23.278;2023-09-07T12:53:08;12.32;;;4.53;;
21878;SDS011;27908;42.708;23.278;2023-09-07T12:55:33;10.07;;;4.10;;
21878;SDS011;27908;42.708;23.278;2023-09-07T12:57:59;10.48;;;4.25;;
21878;SDS011;27908;42.708;23.278;2023-09-07T13:00:25;9.70;;;4.10;;
21878;SDS011;27908;42.708;23.278;2023-09-07T13:02:51;10.20;;;4.23;;
21878;SDS011;27908;42.708;23.278;2023-09-07T13:05:16;9.70;;;3.97;;
21878;SDS011;27908;42.708;23.278;2023-09-07T13:07:53;11.50;;;4.17;;
21878;SDS011;27908;42.708;23.278;2023-09-07T13:10:22;15.05;;;4.22;;
21878;SDS011;27908;42.708;23.278;2023-09-07T13:12:48;8.40;;;4.27;;
21878;SDS011;27908;42.708;23.278;2023-09-07T13:15:13;8.50;;;3.80;;
21878;SDS011;27908;42.708;23.278;2023-09-07T13:17:38;11.38;;;3.88;;
21878;SDS011;27908;42.708;23.278;2023-09-07T13:20:04;12.17;;;4.27;;
21878;SDS011;27908;42.708;23.278;2023-09-07T13:22:30;10.05;;;4.30;;
21878;SDS011;27908;42.708;23.278;2023-09-07T13:24:56;9.40;;;4.13;;
21878;SDS011;27908;42.708;23.278;2023-09-07T13:27:22;8.05;;;3.78;;
21878;SDS011;27908;42.708;23.278;2023-09-07T13:29:47;7.93;;;3.97;;
21878;SDS011;27908;42.708;23.278;2023-09-07T13:32:13;9.20;;;4.13;;
21878;SDS011;27908;42.708;23.278;2023-09-07T13:34:39;12.93;;;3.80;;
21878;SDS011;27908;42.708;23.278;2023-09-07T13:37:04;10.90;;;4.27;;
21878;SDS011;27908;42.708;23.278;2023-09-07T13:39:29;9.10;;;4.10;;
21878;SDS011;27908;42.708;23.278;2023-09-07T13:41:55;8.80;;;4.00;;
21878;SDS011;27908;42.708;23.278;2023-09-07T13:44:20;8.63;;;4.37;;
21878;SDS011;27908;42.708;23.278;2023-09-07T13:46:46;7.80;;;3.90;;
21878;SDS011;27908;42.708;23.278;2023-09-07T13:49:12;9.57;;;3.80;;
21878;SDS011;27908;42.708;23.278;2023-09-07T13:51:39;10.47;;;3.80;;
21878;SDS011;27908;42.708;23.278;2023-09-07T13:54:05;8.20;;;4.03;;
21878;SDS011;27908;42.708;23.278;2023-09-07T13:56:32;8.90;;;4.13;;
21878;SDS011;27908;42.708;23.278;2023-09-07T13:58:58;12.07;;;4.25;;
21878;SDS011;27908;42.708;23.278;2023-09-07T14:01:24;11.87;;;4.80;;
21878;SDS011;27908;42.708;23.278;2023-09-07T14:03:49;10.40;;;4.30;;
21878;SDS011;27908;42.708;23.278;2023-09-07T14:06:15;9.63;;;4.50;;
21878;SDS011;27908;42.708;23.278;2023-09-07T14:08:42;10.38;;;4.40;;
21878;SDS011;27908;42.708;23.278;2023-09-07T14:11:08;10.50;;;4.95;;
21878;SDS011;27908;42.708;23.278;2023-09-07T14:13:34;11.23;;;5.07;;
21878;SDS011;27908;42.708;23.278;2023-09-07T14:16:00;12.97;;;4.77;;
21878;SDS011;27908;42.708;23.278;2023-09-07T14:18:25;12.20;;;5.50;;
21878;SDS011;27908;42.708;23.278;2023-09-07T14:20:51;10.35;;;5.18;;
21878;SDS011;27908;42.708;23.278;2023-09-07T14:23:17;10.53;;;4.93;;
21878;SDS011;27908;42.708;23.278;2023-09-07T14:25:42;11.15;;;5.07;;
21878;SDS011;27908;42.708;23.278;2023-09-07T14:28:10;9.60;;;5.15;;